West Palm Beach, FL (33411)

4:07 PM EDT on September 16, 2014 (GMT -0400)
La Mancha | Change Station
CLOSE
Current Station
Personal Weather Station
Location: ROYAL PALM BEACH, FL
Elevation: 43 ft
Nearby Weather Stations

Elev 43 ft 26.71 °N, 80.22 °W | Updated 1 second ago

Rain
Rain
75.7 °F
Feels Like 74 °F
N
0.0
Wind Variable Wind from NNW
Gusts 3.8 mph

Today
High -- | Low -- °F
--% Chance of Precip.
Yesterday
High -- | Low -- °F
Precip. -- in
7:06 AM 7:24 PM
Last Quarter, 43% visible
Pressure 30.00 in
Visibility 10.0 miles
Clouds Scattered Clouds 2500 ft
Mostly Cloudy 4100 ft
Mostly Cloudy 25000 ft
Heat Index 74 °F
Dew Point 76 °F
Humidity 99%
Rainfall 0.17 in
Snow Depth Not available.
UV 4 out of 12
Pollen 4.90 out of 12
Ozone Good
PM2.5 Moderate
Flu Activity Not available.
METAR KPBI 161953Z 00000KT 10SM -TSRA SCT025 BKN041CB BKN250 28/23 A3000 RMK AO2 RAB46 SLP157 OCNL LTGICCC SW-NW TS SW-NW MOV S TCU SW-W P0000 T02780228

More Conditions Fewer Conditions

Pressure 30.00 in
Visibility 10.0 miles
Clouds Scattered Clouds 2500 ft
Mostly Cloudy 4100 ft
Mostly Cloudy 25000 ft
Heat Index 74 °F
Dew Point 76 °F
Humidity 99%
Rainfall 0.17 in
Snow Depth Not available.
UV 4 out of 12
Pollen 4.90 out of 12
Ozone Good
PM2.5 Moderate
Flu Activity Not available.
METAR KPBI 161953Z 00000KT 10SM -TSRA SCT025 BKN041CB BKN250 28/23 A3000 RMK AO2 RAB46 SLP157 OCNL LTGICCC SW-NW TS SW-NW MOV S TCU SW-W P0000 T02780228

More Conditions Fewer Conditions

Nowcast | as of 2:21 PM EDT on September 16, 2014

Scattered showers and isolated thunderstorms will continue to develop and move southward early this afternoon. The most concentrated over the western suburbs of the East Coast metropolitan areas. Torrential downpours...frequent cloud-to- ground lightning...and wind gusts to 35 mph are possible with the strongest thunderstorms.

×

10-Day Weather Forecast

Almanac

Astronomy

Sep. 16, 2014 Rise Set
Actual Time 7:06 AM EDT 7:24 PM EDT
Civil Twilight 6:43 AM EDT 7:47 PM EDT
Nautical Twilight 6:16 AM EDT 8:14 PM EDT
Astronomical Twilight 5:49 AM EDT 8:41 PM EDT
Moon 12:38 AM EDT 2:23 PM EDT
Length of Visible Light 13h 03m
Length of Day
12h 17m
Tomorrow will be 1m 33s shorter.
Last Quarter, 43% of the Moon is Illuminated
Today
Last Quarter
Sep 24
New
Oct 1
First Quarter
Oct 8
Full
Oct 15
Last Quarter

Today's Extremes

State Highs State Lows

Community

WunderPhotos

Upload Photos

1,753,869 photos uploaded!

Nearby

Air Quality

  Air Quality AQ Index Pollutant
Yesterday Good
PM2.5
Yesterday Good
OZONE
Current Moderate
PM2.5
Current Good
OZONE
Tuesday Good
OZONE
Tuesday Good
PM2.5
Wednesday Good
OZONE
Wednesday Good
PM2.5

Snow Depth

Station Depth Elevation
No new snow has been reported.

Earthquake Activity

City Distance Mag. Time & Date
No recent earthquake activity has been reported nearby.
Minimum magnitude displayed is 2.5.

Coastal Water Temperatures

Place Temperature
Lake Worth, FL 87.1 °F
Virginia Key, FL 87.1 °F

Nearby Weather Stations